Time;durP1;ratioP1;P1;durP2;ratioP2;P2;SDS_P1;SDS_P2;PMS_P1;PMS_P2;Temp;Humidity;BMP_temperature;BMP_pressure;BME280_temperature;BME280_humidity;BME280_pressure;Samples;Min_cycle;Max_cycle;Signal;HPM_P1;HPM_P2
2021/12/17 00:05:02;;;;;;;25.47;6.20;;;;;;;5.09;100.00;102178.80;3440518;83;98850;-90
2021/12/17 00:09:22;;;;;;;18.80;5.53;;;;;;;5.08;100.00;102173.05;3437698;83;98898;-90
2021/12/17 00:14:29;;;;;;;18.90;4.10;;;;;;;5.08;100.00;102175.78;3432444;82;98936;-91
2021/12/17 00:56:16;;;;;;;17.27;5.03;;;;;;;5.06;100.00;102190.30;3390760;84;34098;-90
2021/12/17 01:01:18;;;;;;;21.33;5.13;;;;;;;5.05;100.00;102185.95;3364004;84;98636;-90
2021/12/17 01:06:20;;;;;;;22.73;4.97;;;;;;;5.05;100.00;102185.95;3334868;86;98780;-90
2021/12/17 01:11:22;;;;;;;18.77;5.17;;;;;;;5.03;100.00;102175.07;3369988;84;98539;-90
2021/12/17 01:16:24;;;;;;;18.43;4.43;;;;;;;5.03;100.00;102164.16;3343132;85;98481;-92
2021/12/17 01:21:40;;;;;;;24.00;5.95;;;;;;;5.00;100.00;102166.92;3320431;86;99373;-91
2021/12/17 01:42:25;;;;;;;21.30;4.20;;;;;;;4.86;100.00;102169.34;3351992;85;98776;-90
2021/12/17 01:47:26;;;;;;;18.23;3.93;;;;;;;4.81;100.00;102166.70;3370667;85;99274;-91
2021/12/17 02:02:57;;;;;;;15.53;3.95;;;;;;;4.69;100.00;102163.61;3386226;84;98907;-90
2021/12/17 02:07:59;;;;;;;22.80;4.37;;;;;;;4.63;100.00;102166.16;3399209;83;98738;-91
2021/12/17 02:28:58;;;;;;;;;;;;;;;4.36;100.00;102154.53;3414401;83;99311;-92
2021/12/17 02:34:02;;;;;;;23.93;4.50;;;;;;;4.28;100.00;102157.10;3436232;83;84801;-90
2021/12/17 02:49:46;;;;;;;21.97;5.33;;;;;;;3.98;100.00;102157.51;3425879;82;99203;-91
2021/12/17 02:54:47;;;;;;;19.50;4.80;;;;;;;3.85;100.00;102162.27;3444377;83;98387;-90
2021/12/17 02:59:49;;;;;;;20.60;4.97;;;;;;;3.77;100.00;102165.66;3440570;83;99193;-91
2021/12/17 03:04:50;;;;;;;27.00;5.43;;;;;;;3.69;100.00;102173.90;3449860;83;98875;-90
2021/12/17 03:10:04;;;;;;;13.10;4.20;;;;;;;3.62;100.00;102177.52;3420712;83;99454;-90
2021/12/17 03:25:50;;;;;;;19.97;5.00;;;;;;;3.43;100.00;102174.43;3459343;83;33331;-90
2021/12/17 03:30:51;;;;;;;13.33;5.00;;;;;;;3.35;100.00;102176.42;3454918;82;99121;-90
2021/12/17 03:35:53;;;;;;;18.03;5.43;;;;;;;3.25;100.00;102184.14;3396852;84;99212;-90
2021/12/17 03:41:08;;;;;;;19.30;5.22;;;;;;;3.16;100.00;102183.69;3426417;83;98829;-90
2021/12/17 03:45:57;;;;;;;14.87;4.93;;;;;;;3.13;100.00;102184.24;3437799;82;99084;-91
2021/12/17 03:50:58;;;;;;;20.97;5.60;;;;;;;3.09;100.00;102180.45;3419775;83;99288;-90
2021/12/17 03:55:58;;;;;;;13.87;5.00;;;;;;;3.05;100.00;102179.39;3434202;84;33294;-91
2021/12/17 04:00:59;;;;;;;15.97;4.53;;;;;;;2.99;100.00;102175.92;3436825;82;99195;-89
2021/12/17 04:06:00;;;;;;;13.20;4.33;;;;;;;2.95;100.00;102178.94;3423996;83;97878;-90
2021/12/17 04:11:04;;;;;;;16.03;3.90;;;;;;;2.92;100.00;102171.36;3429470;82;99323;-89
2021/12/17 04:16:09;;;;;;;17.47;5.03;;;;;;;2.91;100.00;102167.02;3442462;82;99329;-89
2021/12/17 04:21:13;;;;;;;21.42;5.90;;;;;;;2.93;100.00;102163.46;3433977;83;98888;-90
2021/12/17 04:26:19;;;;;;;18.47;4.60;;;;;;;2.94;100.00;102155.56;3441399;82;33737;-91
2021/12/17 04:31:20;;;;;;;18.37;4.53;;;;;;;2.98;100.00;102149.00;3440890;82;98929;-90
2021/12/17 04:36:26;;;;;;;22.40;5.00;;;;;;;3.01;100.00;102147.88;3445672;83;97894;-89
2021/12/17 04:41:40;;;;;;;24.45;5.53;;;;;;;3.04;100.00;102132.36;3426767;83;98704;-90
2021/12/17 04:46:36;;;;;;;20.57;4.45;;;;;;;3.07;100.00;102126.91;3395857;84;98869;-90
2021/12/17 05:02:10;;;;;;;18.03;4.83;;;;;;;3.24;100.00;102117.22;3369838;83;98556;-90
2021/12/17 05:07:13;;;;;;;26.47;6.83;;;;;;;3.33;100.00;102129.65;3445470;83;99004;-91
2021/12/17 05:22:34;;;;;;;25.23;5.87;;;;;;;3.54;100.00;102140.56;3399552;83;98722;-91
2021/12/17 05:27:35;;;;;;;22.82;5.33;;;;;;;3.61;100.00;102142.41;3417184;83;98896;-89
2021/12/17 05:32:35;;;;;;;19.60;4.13;;;;;;;3.68;100.00;102138.78;3417637;81;99424;-90
2021/12/17 05:37:36;;;;;;;23.53;5.13;;;;;;;3.73;100.00;102134.64;3421373;83;33852;-91
2021/12/17 05:42:39;;;;;;;17.73;4.07;;;;;;;3.75;100.00;102130.53;3424809;83;98784;-91
2021/12/17 05:47:40;;;;;;;25.15;6.65;;;;;;;3.77;100.00;102124.80;3428562;83;98938;-90
2021/12/17 05:52:41;;;;;;;34.40;6.90;;;;;;;3.77;100.00;102126.95;3420082;83;98963;-91
2021/12/17 05:57:42;;;;;;;14.30;4.57;;;;;;;3.78;100.00;102127.78;3412103;84;98060;-90
2021/12/17 06:02:43;;;;;;;24.30;4.87;;;;;;;3.78;100.00;102146.27;3406364;84;99094;-90
2021/12/17 06:07:44;;;;;;;19.67;4.77;;;;;;;3.79;100.00;102141.11;3411190;83;31581;-90
2021/12/17 06:12:45;;;;;;;21.23;5.23;;;;;;;3.78;100.00;102151.72;3445046;83;97918;-90
2021/12/17 06:17:46;;;;;;;15.63;4.27;;;;;;;3.76;100.00;102155.86;3421741;83;98772;-90
2021/12/17 06:22:47;;;;;;;17.60;5.83;;;;;;;3.74;100.00;102162.95;3422414;83;98115;-90
2021/12/17 06:27:48;;;;;;;21.47;5.93;;;;;;;3.71;100.00;102169.53;3426030;83;99171;-90
2021/12/17 06:32:49;;;;;;;27.63;5.13;;;;;;;3.67;100.00;102164.39;3433280;83;99117;-90
2021/12/17 06:37:50;;;;;;;15.93;5.10;;;;;;;3.63;100.00;102176.95;3438455;83;98830;-91
2021/12/17 06:42:50;;;;;;;21.43;5.60;;;;;;;3.58;100.00;102168.84;3431504;82;98055;-90
2021/12/17 06:47:58;;;;;;;19.67;5.60;;;;;;;3.55;100.00;102162.63;3410191;82;98969;-91
2021/12/17 06:58:43;;;;;;;20.13;6.43;;;;;;;3.45;100.00;102196.75;3419617;83;98891;-90
2021/12/17 07:34:30;;;;;;;21.37;6.17;;;;;;;3.72;100.00;102205.19;3434230;83;98830;-91
2021/12/17 07:39:22;;;;;;;20.57;5.63;;;;;;;3.78;100.00;102194.50;3428005;82;98863;-91
2021/12/17 07:44:23;;;;;;;19.63;5.43;;;;;;;3.83;100.00;102190.36;3416245;83;98087;-91
2021/12/17 07:49:23;;;;;;;22.30;5.37;;;;;;;3.87;100.00;102200.95;3440209;82;98814;-91
2021/12/17 07:54:24;;;;;;;18.77;5.73;;;;;;;3.88;100.00;102202.00;3451143;82;98000;-90
2021/12/17 07:59:25;;;;;;;22.43;6.97;;;;;;;3.92;100.00;102211.76;3422431;82;99179;-91
2021/12/17 08:04:26;;;;;;;25.77;6.53;;;;;;;3.94;100.00;102217.75;3424739;83;99260;-90
2021/12/17 08:09:28;;;;;;;25.90;5.87;;;;;;;3.95;100.00;102207.94;3440800;83;98757;-91
2021/12/17 08:14:30;;;;;;;21.00;5.40;;;;;;;4.01;100.00;102212.75;3401701;82;98934;-91
2021/12/17 08:24:53;;;;;;;23.40;6.83;;;;;;;4.23;100.00;102206.22;3444159;83;98765;-89
2021/12/17 08:29:56;;;;;;;18.23;5.97;;;;;;;4.45;100.00;102199.66;3430713;83;98731;-90
2021/12/17 08:34:55;;;;;;;22.30;6.40;;;;;;;4.67;100.00;102198.53;3420282;83;98854;-90
2021/12/17 08:39:55;;;;;;;21.27;6.23;;;;;;;4.78;100.00;102197.28;3423870;84;98969;-89
2021/12/17 08:44:56;;;;;;;17.13;6.20;;;;;;;4.80;100.00;102200.54;3450571;83;98843;-89
2021/12/17 08:50:04;;;;;;;20.30;5.65;;;;;;;4.80;100.00;102222.36;3436901;83;99162;-89
2021/12/17 08:55:00;;;;;;;21.70;6.03;;;;;;;4.78;100.00;102216.37;3435248;83;98671;-91
2021/12/17 09:00:06;;;;;;;19.93;5.50;;;;;;;4.78;100.00;102229.47;3428194;83;98748;-91
2021/12/17 09:05:08;;;;;;;15.27;5.27;;;;;;;4.79;100.00;102228.89;3406090;83;98921;-91
2021/12/17 09:10:11;;;;;;;22.37;5.67;;;;;;;4.79;100.00;102213.89;3413572;84;99055;-91
2021/12/17 09:15:12;;;;;;;21.70;5.33;;;;;;;4.78;100.00;102209.02;3421639;84;99912;-91
2021/12/17 09:20:13;;;;;;;18.63;5.83;;;;;;;4.77;100.00;102204.67;3432689;83;98606;-90
2021/12/17 09:25:15;;;;;;;20.87;5.43;;;;;;;4.79;100.00;102196.16;3441163;82;98525;-91
2021/12/17 09:30:18;;;;;;;23.83;6.30;;;;;;;4.84;100.00;102197.45;3465174;82;99218;-91
2021/12/17 09:35:21;;;;;;;19.73;5.87;;;;;;;4.93;100.00;102205.23;3429032;83;99237;-90
2021/12/17 09:40:22;;;;;;;18.13;5.60;;;;;;;5.05;100.00;102204.22;3409774;83;99043;-90
2021/12/17 09:45:23;;;;;;;17.83;6.33;;;;;;;5.18;100.00;102220.66;3411607;83;98877;-90
2021/12/17 09:50:24;;;;;;;22.53;6.67;;;;;;;5.31;100.00;102224.55;3423835;82;99035;-90
2021/12/17 09:55:26;;;;;;;22.70;5.30;;;;;;;5.40;100.00;102224.92;3466002;83;32541;-91
2021/12/17 10:00:28;;;;;;;19.93;4.67;;;;;;;5.50;100.00;102232.12;3428543;83;98738;-90
2021/12/17 10:05:34;;;;;;;18.93;4.30;;;;;;;5.58;100.00;102234.19;3464966;83;99296;-91
2021/12/17 10:10:39;;;;;;;16.85;4.53;;;;;;;5.65;100.00;102234.60;3416601;83;98805;-91
2021/12/17 10:15:44;;;;;;;21.70;4.47;;;;;;;5.74;100.00;102230.08;3437201;83;98881;-92
2021/12/17 10:20:59;;;;;;;22.07;5.43;;;;;;;5.79;100.00;102225.89;3392740;84;99292;-92
2021/12/17 10:26:03;;;;;;;16.17;4.27;;;;;;;5.82;100.00;102217.11;3436548;82;25912;-93
2021/12/17 10:31:09;;;;;;;17.10;4.07;;;;;;;5.87;100.00;102223.84;3405569;82;99667;-95
2021/12/17 10:36:10;;;;;;;16.27;3.70;;;;;;;5.89;100.00;102215.59;3421954;83;98814;-92
2021/12/17 10:41:14;;;;;;;18.83;4.40;;;;;;;5.91;100.00;102211.20;3414739;82;99032;-90
2021/12/17 10:46:26;;;;;;;21.53;6.53;;;;;;;5.92;100.00;102220.47;3432934;82;98871;-94
2021/12/17 10:56:48;;;;;;;19.87;5.60;;;;;;;5.97;100.00;102214.91;3439739;83;99484;-93
2021/12/17 11:02:00;;;;;;;18.12;4.90;;;;;;;5.96;100.00;102207.01;3405258;83;98417;-91
2021/12/17 11:07:10;;;;;;;20.63;4.93;;;;;;;5.99;100.00;102221.42;3440532;83;99056;-92
2021/12/17 11:12:39;;;;;;;20.53;5.47;;;;;;;6.03;100.00;102217.80;3460357;82;98889;-89
2021/12/17 11:17:42;;;;;;;16.93;4.10;;;;;;;6.06;100.00;102233.58;3426374;83;98959;-90
2021/12/17 11:22:48;;;;;;;12.93;3.73;;;;;;;6.04;100.00;102239.09;3422492;83;98867;-89
2021/12/17 11:27:51;;;;;;;15.50;4.97;;;;;;;6.05;100.00;102235.27;3433956;83;99088;-90
2021/12/17 11:32:54;;;;;;;16.80;5.23;;;;;;;6.09;100.00;102234.89;3465387;83;99273;-89
2021/12/17 11:38:00;;;;;;;17.87;4.90;;;;;;;6.10;100.00;102220.92;3437267;83;98829;-91
2021/12/17 11:43:49;;;;;;;33.60;13.45;;;;;;;6.11;100.00;102227.22;3448705;83;98821;-90
2021/12/17 11:49:00;;;;;;;16.30;4.53;;;;;;;6.12;100.00;102230.20;3450251;83;99091;-88
2021/12/17 11:54:10;;;;;;;18.95;5.00;;;;;;;6.14;100.00;102227.42;3443255;82;98795;-89
2021/12/17 11:59:32;;;;;;;15.57;4.33;;;;;;;6.13;100.00;102225.80;3418294;83;98979;-91
2021/12/17 12:04:39;;;;;;;16.77;5.40;;;;;;;6.14;100.00;102231.52;3447570;83;98882;-90
2021/12/17 12:10:08;;;;;;;18.17;4.57;;;;;;;6.14;100.00;102230.15;3432169;82;98959;-89
2021/12/17 12:15:31;;;;;;;15.20;4.03;;;;;;;6.16;100.00;102218.34;3424122;83;99739;-89
2021/12/17 12:26:25;;;;;;;12.98;4.42;;;;;;;6.15;100.00;102201.69;3307129;86;26405;-89
2021/12/17 12:31:37;;;;;;;15.40;4.30;;;;;;;6.15;100.00;102203.06;3327418;85;98690;-89
2021/12/17 12:37:18;;;;;;;18.12;3.85;;;;;;;6.16;100.00;102210.14;3298064;86;99217;-88
2021/12/17 12:42:35;;;;;;;13.28;3.62;;;;;;;6.16;100.00;102212.08;3304000;86;98936;-89
2021/12/17 12:47:44;;;;;;;15.65;5.03;;;;;;;6.11;100.00;102223.91;3318129;85;98913;-90
2021/12/17 12:52:59;;;;;;;23.00;6.30;;;;;;;6.09;100.00;102221.22;3307631;85;98917;-89
2021/12/17 12:58:13;;;;;;;15.20;3.90;;;;;;;6.08;100.00;102212.77;3331440;86;98899;-90
2021/12/17 13:03:18;;;;;;;21.10;8.43;;;;;;;6.05;100.00;102214.77;3332293;86;98908;-89
2021/12/17 13:08:21;;;;;;;18.42;6.10;;;;;;;6.05;100.00;102197.79;3323326;85;98915;-90
2021/12/17 13:13:37;;;;;;;17.27;3.90;;;;;;;6.03;100.00;102201.94;3374145;85;98598;-89
2021/12/17 13:24:16;;;;;;;18.98;6.55;;;;;;;5.90;100.00;102219.94;3333017;85;98692;-90
2021/12/17 13:29:19;;;;;;;15.93;4.95;;;;;;;5.81;99.83;102215.48;3348633;85;98960;-90
2021/12/17 13:34:25;;;;;;;;;;;;;;;5.73;99.80;102206.61;3350146;85;98803;-90
2021/12/17 13:39:31;;;;;;;11.00;3.62;;;;;;;5.63;99.31;102210.31;3336863;84;84971;-91
2021/12/17 13:44:41;;;;;;;14.47;4.27;;;;;;;5.52;99.59;102216.27;3345095;84;98435;-89
2021/12/17 13:49:53;;;;;;;21.73;4.97;;;;;;;5.40;99.64;102224.92;3327719;85;98786;-88
2021/12/17 13:54:57;;;;;;;16.17;4.30;;;;;;;5.31;99.91;102224.02;3343370;85;98640;-90
2021/12/17 14:00:09;;;;;;;16.20;3.80;;;;;;;5.22;100.00;102225.78;3321003;85;98622;-90
2021/12/17 14:05:25;;;;;;;18.83;3.80;;;;;;;5.15;100.00;102225.91;3324317;86;98931;-89
2021/12/17 14:10:27;;;;;;;12.73;3.30;;;;;;;5.09;100.00;102222.45;3366554;84;99221;-89
2021/12/17 14:15:35;;;;;;;15.27;4.17;;;;;;;5.03;100.00;102222.83;3377086;85;98881;-87
2021/12/17 14:20:41;;;;;;;16.87;4.07;;;;;;;4.96;100.00;102240.92;3301073;85;99606;-87
2021/12/17 14:25:53;;;;;;;19.27;4.65;;;;;;;4.87;100.00;102237.80;3319881;86;26138;-89
2021/12/17 14:31:03;;;;;;;16.13;4.73;;;;;;;4.81;100.00;102243.86;3309348;86;99007;-88
2021/12/17 14:36:09;;;;;;;16.60;5.27;;;;;;;4.74;100.00;102254.34;3311417;86;99474;-89
2021/12/17 14:41:22;;;;;;;;;;;;;;;4.66;100.00;102244.10;3297497;85;99176;-88
2021/12/17 14:46:29;;;;;;;28.07;9.03;;;;;;;4.58;100.00;102252.12;3303242;86;84582;-87
2021/12/17 15:07:23;;;;;;;18.57;9.00;;;;;;;4.25;100.00;102244.34;3400035;84;98583;-88
2021/12/17 15:12:37;;;;;;;25.67;10.60;;;;;;;4.15;100.00;102232.77;3384599;83;99310;-88
2021/12/17 15:17:27;;;;;;;23.00;10.67;;;;;;;4.04;100.00;102238.87;3382942;82;99449;-88
2021/12/17 15:22:28;;;;;;;27.07;9.93;;;;;;;3.97;100.00;102232.13;3369705;84;99137;-88
2021/12/17 15:27:33;;;;;;;29.57;9.40;;;;;;;3.87;100.00;102226.25;3379264;82;98804;-87
2021/12/17 15:32:32;;;;;;;18.90;7.60;;;;;;;3.78;100.00;102232.05;3388111;84;98921;-87
2021/12/17 15:37:33;;;;;;;21.70;6.40;;;;;;;3.69;100.00;102246.59;3375759;84;31746;-88
2021/12/17 15:42:34;;;;;;;17.20;6.30;;;;;;;3.59;100.00;102247.51;3360665;84;98482;-87
2021/12/17 15:47:35;;;;;;;23.00;6.00;;;;;;;3.53;100.00;102260.91;3365591;85;98966;-87
2021/12/17 15:52:46;;;;;;;18.13;5.83;;;;;;;3.47;100.00;102255.78;3360147;85;99068;-88
2021/12/17 15:57:48;;;;;;;18.87;5.30;;;;;;;3.41;100.00;102270.00;3366739;84;99222;-88
2021/12/17 16:02:49;;;;;;;19.67;5.27;;;;;;;3.39;100.00;102271.38;3366045;85;99290;-87
2021/12/17 16:07:53;;;;;;;21.63;6.40;;;;;;;3.34;100.00;102274.93;3382169;84;98513;-89
2021/12/17 16:23:14;;;;;;;26.77;7.93;;;;;;;3.21;100.00;102291.08;3331596;83;98943;-88
2021/12/17 16:28:14;;;;;;;24.52;7.75;;;;;;;3.17;100.00;102290.84;3328753;85;99533;-88
2021/12/17 16:33:15;;;;;;;22.00;8.20;;;;;;;3.14;100.00;102287.87;3384320;84;99250;-88
2021/12/17 16:38:20;;;;;;;28.30;10.00;;;;;;;3.10;100.00;102289.53;3334706;86;98814;-87
2021/12/17 16:43:19;;;;;;;17.03;6.90;;;;;;;3.09;100.00;102291.99;3301885;86;98492;-87
2021/12/17 16:48:22;;;;;;;26.60;8.15;;;;;;;3.05;100.00;102316.23;3287153;86;99125;-87
2021/12/17 16:53:22;;;;;;;24.50;9.40;;;;;;;3.03;100.00;102323.04;3303246;87;99596;-88
2021/12/17 16:58:23;;;;;;;24.30;8.40;;;;;;;3.01;100.00;102324.67;3314068;86;98861;-88
2021/12/17 17:03:24;;;;;;;25.10;9.33;;;;;;;2.99;100.00;102329.59;3331690;85;98820;-88
2021/12/17 17:08:25;;;;;;;26.55;11.45;;;;;;;2.98;100.00;102336.67;3400774;84;98948;-88
2021/12/17 17:13:27;;;;;;;31.40;10.63;;;;;;;2.95;100.00;102334.52;3391699;85;98668;-86
2021/12/17 17:18:27;;;;;;;27.93;9.63;;;;;;;2.92;100.00;102350.85;3392025;84;99326;-89
2021/12/17 17:23:32;;;;;;;28.30;9.07;;;;;;;2.91;100.00;102342.43;3394326;84;98931;-89
2021/12/17 17:28:35;;;;;;;22.07;8.30;;;;;;;2.88;100.00;102350.31;3396130;82;99199;-88
2021/12/17 17:33:45;;;;;;;28.40;9.63;;;;;;;2.85;100.00;102358.48;3392919;85;99221;-88
2021/12/17 17:38:40;;;;;;;30.27;9.20;;;;;;;2.85;100.00;102360.41;3401286;85;99337;-88
2021/12/17 17:43:40;;;;;;;32.40;11.30;;;;;;;2.82;100.00;102369.93;3378040;84;31684;-88
2021/12/17 17:48:41;;;;;;;19.07;6.97;;;;;;;2.78;100.00;102370.20;3410787;84;98995;-88
2021/12/17 17:53:43;;;;;;;24.77;8.33;;;;;;;2.76;100.00;102379.20;3331006;86;98936;-88
2021/12/17 17:58:44;;;;;;;20.92;8.08;;;;;;;2.72;100.00;102370.50;3317770;85;98828;-88
2021/12/17 18:03:45;;;;;;;17.80;6.93;;;;;;;2.69;100.00;102362.35;3344168;85;99308;-88
2021/12/17 18:08:46;;;;;;;18.87;6.80;;;;;;;2.67;100.00;102359.11;3312479;86;99352;-88
2021/12/17 18:13:47;;;;;;;20.87;8.07;;;;;;;2.65;100.00;102357.75;3320057;86;31590;-88
2021/12/17 18:18:48;;;;;;;21.80;6.67;;;;;;;2.62;100.00;102361.84;3305412;86;99147;-89
2021/12/17 18:23:49;;;;;;;17.23;6.40;;;;;;;2.61;100.00;102352.59;3327926;86;98823;-88
2021/12/17 18:28:50;;;;;;;24.33;7.57;;;;;;;2.56;100.00;102337.70;3316369;86;99076;-87
2021/12/17 18:33:50;;;;;;;18.60;5.77;;;;;;;2.52;100.00;102351.00;3327048;85;98992;-88
2021/12/17 18:38:54;;;;;;;21.90;6.47;;;;;;;2.49;100.00;102364.33;3335606;85;98866;-88
2021/12/17 18:44:08;;;;;;;20.53;6.77;;;;;;;2.47;100.00;102368.67;3363949;84;26337;-89
2021/12/17 18:49:13;;;;;;;19.42;6.10;;;;;;;2.46;100.00;102375.77;3334944;84;99194;-88
2021/12/17 18:54:13;;;;;;;30.80;8.93;;;;;;;2.39;100.00;102374.69;3326709;84;98679;-89
2021/12/17 18:59:14;;;;;;;24.10;10.07;;;;;;;2.42;100.00;102382.84;3297511;86;99386;-88
2021/12/17 19:04:19;;;;;;;25.80;10.53;;;;;;;2.40;100.00;102397.25;3333158;84;99105;-87
2021/12/17 19:09:20;;;;;;;30.97;10.67;;;;;;;2.37;100.00;102388.28;3289209;86;99134;-87
2021/12/17 19:14:27;;;;;;;25.77;10.67;;;;;;;2.35;100.00;102401.34;3299944;87;35027;-88
2021/12/17 19:19:36;;;;;;;26.33;7.87;;;;;;;2.32;100.00;102408.66;3266215;86;99119;-87
2021/12/17 19:24:32;;;;;;;29.00;9.27;;;;;;;2.29;100.00;102411.38;3304277;86;99149;-88
2021/12/17 19:29:33;;;;;;;30.62;11.18;;;;;;;2.26;100.00;102412.48;3287590;86;98993;-89
2021/12/17 19:34:34;;;;;;;31.20;10.97;;;;;;;2.23;100.00;102417.09;3272380;86;99508;-88
2021/12/17 19:39:35;;;;;;;27.57;10.10;;;;;;;2.19;100.00;102414.11;3352064;83;99057;-89
2021/12/17 19:44:36;;;;;;;26.50;9.03;;;;;;;2.16;100.00;102422.81;3357987;85;99079;-89
2021/12/17 19:54:39;;;;;;;32.13;12.77;;;;;;;2.12;100.00;102428.52;3371361;84;99419;-90
2021/12/17 19:59:41;;;;;;;34.83;12.23;;;;;;;2.12;100.00;102423.08;3365975;85;99427;-90
2021/12/17 20:04:44;;;;;;;33.80;14.20;;;;;;;2.10;100.00;102427.98;3340287;83;99161;-91
2021/12/17 20:09:45;;;;;;;30.23;11.80;;;;;;;2.08;100.00;102424.70;3362219;85;99371;-91
2021/12/17 20:14:48;;;;;;;27.90;9.07;;;;;;;2.04;100.00;102414.67;3364957;84;99581;-91
2021/12/17 20:19:49;;;;;;;42.30;15.83;;;;;;;2.02;100.00;102425.00;3298351;86;98800;-90
2021/12/17 20:24:50;;;;;;;36.33;12.60;;;;;;;1.97;100.00;102420.92;3379649;84;99292;-90
2021/12/17 20:29:52;;;;;;;27.37;9.93;;;;;;;1.94;100.00;102413.31;3410065;84;98963;-92
2021/12/17 20:34:53;;;;;;;24.17;10.57;;;;;;;1.93;100.00;102423.91;3308610;86;99511;-90
2021/12/17 20:39:55;;;;;;;23.33;8.27;;;;;;;1.93;100.00;102426.62;3316398;86;99340;-90
2021/12/17 20:45:01;;;;;;;19.27;7.93;;;;;;;1.94;100.00;102422.81;3332496;85;99333;-89
2021/12/17 20:50:00;;;;;;;16.87;6.57;;;;;;;1.93;100.00;102435.59;3310194;86;98859;-91
2021/12/17 20:55:01;;;;;;;24.70;6.20;;;;;;;1.92;100.00;102433.14;3315733;86;98847;-89
2021/12/17 21:00:04;;;;;;;18.63;6.07;;;;;;;1.96;100.00;102436.92;3334258;85;99368;-90
2021/12/17 21:05:06;;;;;;;22.57;7.40;;;;;;;1.97;100.00;102435.30;3335396;86;98999;-91
2021/12/17 21:10:10;;;;;;;24.00;7.13;;;;;;;1.99;100.00;102429.60;3331820;86;99306;-92
2021/12/17 21:15:21;;;;;;;20.47;7.07;;;;;;;2.00;100.00;102435.30;3325325;86;99654;-92
2021/12/17 21:20:26;;;;;;;24.92;8.08;;;;;;;1.99;100.00;102431.79;3307916;86;99162;-92
2021/12/17 21:25:28;;;;;;;;;;;;;;;1.99;100.00;102432.32;3326797;85;98484;-91
2021/12/17 21:30:29;;;;;;;16.97;6.17;;;;;;;1.98;100.00;102425.27;3325822;85;85204;-92
2021/12/17 21:35:30;;;;;;;25.87;8.40;;;;;;;1.97;100.00;102427.72;3365786;85;99202;-92
2021/12/17 21:40:36;;;;;;;23.03;6.87;;;;;;;1.98;100.00;102434.20;3373236;82;99232;-91
2021/12/17 21:45:38;;;;;;;27.45;6.35;;;;;;;1.98;100.00;102442.35;3326191;85;99209;-90
2021/12/17 21:50:43;;;;;;;17.23;6.20;;;;;;;2.01;100.00;102439.64;3322874;86;98911;-94
2021/12/17 21:55:46;;;;;;;19.13;5.90;;;;;;;2.05;100.00;102448.88;3316986;86;26025;-93
2021/12/17 22:00:56;;;;;;;16.03;5.23;;;;;;;2.09;100.00;102450.77;3321768;86;99251;-93
2021/12/17 22:05:57;;;;;;;21.83;6.70;;;;;;;2.13;100.00;102456.51;3304653;87;99089;-94
2021/12/17 22:11:00;;;;;;;16.07;6.00;;;;;;;2.16;100.00;102465.45;3270483;85;98970;-93
2021/12/17 22:16:01;;;;;;;20.23;6.67;;;;;;;2.20;100.00;102471.42;3281335;87;99470;-94
2021/12/17 22:21:07;;;;;;;23.52;6.78;;;;;;;2.22;100.00;102458.93;3280057;86;98913;-95
2021/12/17 22:26:05;;;;;;;18.60;6.93;;;;;;;2.25;100.00;102459.20;3300380;85;26325;-94
2021/12/17 22:31:06;;;;;;;18.97;5.63;;;;;;;2.27;100.00;102444.81;3276141;87;98832;-94
2021/12/17 22:36:07;;;;;;;19.20;6.17;;;;;;;2.28;100.00;102444.25;3258276;87;98803;-94
2021/12/17 22:41:19;;;;;;;18.90;5.80;;;;;;;2.31;100.00;102438.28;3319636;86;98474;-95
2021/12/17 22:46:11;;;;;;;19.13;5.70;;;;;;;2.33;100.00;102440.17;3308145;87;99486;-95
2021/12/17 22:51:12;;;;;;;20.00;5.17;;;;;;;2.34;100.00;102436.36;3320065;86;99320;-95
2021/12/17 22:56:13;;;;;;;20.37;5.83;;;;;;;2.33;100.00;102433.38;3318921;87;34928;-94
2021/12/17 23:01:18;;;;;;;22.20;6.17;;;;;;;2.32;100.00;102431.23;3295326;87;98736;-95
2021/12/17 23:06:27;;;;;;;16.73;7.10;;;;;;;2.32;100.00;102434.48;3404186;84;98712;-93
2021/12/17 23:11:22;;;;;;;17.50;5.35;;;;;;;2.30;100.00;102436.66;3385838;84;98830;-94
2021/12/17 23:16:25;;;;;;;14.37;5.10;;;;;;;2.30;100.00;102446.17;3392058;84;99281;-95
2021/12/17 23:21:25;;;;;;;13.95;5.22;;;;;;;2.29;100.00;102427.69;3380595;85;98925;-95
2021/12/17 23:26:29;;;;;;;14.70;4.43;;;;;;;2.26;100.00;102428.25;3390732;85;34930;-94
2021/12/17 23:31:30;;;;;;;16.43;5.83;;;;;;;2.24;100.00;102427.69;3401818;84;98635;-94
2021/12/17 23:36:35;;;;;;;14.38;5.60;;;;;;;2.23;100.00;102434.75;3395341;84;99077;-93
2021/12/17 23:41:36;;;;;;;17.92;5.00;;;;;;;2.22;100.00;102435.84;3379563;83;99007;-93
2021/12/17 23:46:39;;;;;;;14.37;4.50;;;;;;;2.18;100.00;102439.65;3410705;84;98917;-93
2021/12/17 23:51:40;;;;;;;18.13;5.10;;;;;;;2.16;100.00;102435.04;3405510;84;99281;-94
2021/12/17 23:56:42;;;;;;;17.23;5.17;;;;;;;2.13;100.00;102443.72;3342041;86;107100;-95
